Map

Track Data

SID SEASON NUMBER BASIN SUBBASIN NAME ISO_TIME NATURE LAT LON WMO_WIND WMO_PRES WMO_AGENCY TRACK_TYPE DIST2LAND LANDFALL IFLAG USA_AGENCY USA_ATCF_ID USA_LAT USA_LON USA_RECORD USA_STATUS USA_WIND USA_PRES USA_SSHS USA_R34_NE USA_R34_SE USA_R34_SW USA_R34_NW USA_R50_NE USA_R50_SE USA_R50_SW USA_R50_NW USA_R64_NE USA_R64_SE USA_R64_SW USA_R64_NW USA_POCI USA_ROCI USA_RMW USA_EYE TOKYO_LAT TOKYO_LON TOKYO_GRADE TOKYO_WIND TOKYO_PRES TOKYO_R50_DIR TOKYO_R50_LONG TOKYO_R50_SHORT TOKYO_R30_DIR TOKYO_R30_LONG TOKYO_R30_SHORT TOKYO_LAND CMA_LAT CMA_LON CMA_CAT CMA_WIND CMA_PRES HKO_LAT HKO_LON HKO_CAT HKO_WIND HKO_PRES NEWDELHI_LAT NEWDELHI_LON NEWDELHI_GRADE NEWDELHI_WIND NEWDELHI_PRES NEWDELHI_CI NEWDELHI_DP NEWDELHI_POCI REUNION_LAT REUNION_LON REUNION_TYPE REUNION_WIND REUNION_PRES REUNION_TNUM REUNION_CI REUNION_RMW REUNION_R34_NE REUNION_R34_SE REUNION_R34_SW REUNION_R34_NW REUNION_R50_NE REUNION_R50_SE REUNION_R50_SW REUNION_R50_NW REUNION_R64_NE REUNION_R64_SE REUNION_R64_SW REUNION_R64_NW BOM_LAT BOM_LON BOM_TYPE BOM_WIND BOM_PRES BOM_TNUM BOM_CI BOM_RMW BOM_R34_NE BOM_R34_SE BOM_R34_SW BOM_R34_NW BOM_R50_NE BOM_R50_SE BOM_R50_SW BOM_R50_NW BOM_R64_NE BOM_R64_SE BOM_R64_SW BOM_R64_NW BOM_ROCI BOM_POCI BOM_EYE BOM_POS_METHOD BOM_PRES_METHOD NADI_LAT NADI_LON NADI_CAT NADI_WIND NADI_PRES WELLINGTON_LAT WELLINGTON_LON WELLINGTON_WIND WELLINGTON_PRES DS824_LAT DS824_LON DS824_STAGE DS824_WIND DS824_PRES TD9636_LAT TD9636_LON TD9636_STAGE TD9636_WIND TD9636_PRES TD9635_LAT TD9635_LON TD9635_WIND TD9635_PRES TD9635_ROCI NEUMANN_LAT NEUMANN_LON NEUMANN_CLASS NEUMANN_WIND NEUMANN_PRES MLC_LAT MLC_LON MLC_CLASS MLC_WIND MLC_PRES USA_GUST BOM_GUST BOM_GUST_PER REUNION_GUST REUNION_GUST_PER USA_SEAHGT USA_SEARAD_NE USA_SEARAD_SE USA_SEARAD_SW USA_SEARAD_NW STORM_SPEED STORM_DIR
1880217N16300 1880 10 NA NA NOT_NAMED 1880-08-04 00:00:00 TS 16.0000 -59.8000 40 hurdat_atl main 607 581 O_____________ hurdat_atl AL021880 16.0000 -59.8000 TS 40 0 19 266
1880217N16300 1880 10 NA CS NOT_NAMED 1880-08-04 03:00:00 TS 15.9303 -60.7629 main 571 488 P_____________ AL021880 15.9303 -60.7629 TS 40 0 19 267
1880217N16300 1880 10 NA CS NOT_NAMED 1880-08-04 06:00:00 TS 15.9000 -61.8000 40 hurdat_atl main 479 385 O_____________ hurdat_atl AL021880 15.9000 -61.8000 TS 40 0 21 270
1880217N16300 1880 10 NA CS NOT_NAMED 1880-08-04 09:00:00 TS 15.9354 -62.9372 main 385 301 P_____________ AL021880 15.9354 -62.9372 TS 40 0 21 273
1880217N16300 1880 10 NA CS NOT_NAMED 1880-08-04 12:00:00 TS 16.0000 -64.0000 40 hurdat_atl main 294 247 O_____________ hurdat_atl AL021880 16.0000 -64.0000 TS 40 0 18 274
1880217N16300 1880 10 NA CS NOT_NAMED 1880-08-04 15:00:00 TS 16.0491 -64.8025 main 247 214 P_____________ AL021880 16.0491 -64.8025 TS 40 0 14 274
1880217N16300 1880 10 NA CS NOT_NAMED 1880-08-04 18:00:00 TS 16.1000 -65.5000 40 hurdat_atl main 214 190 O_____________ hurdat_atl AL021880 16.1000 -65.5000 TS 40 0 14 274
1880217N16300 1880 10 NA CS NOT_NAMED 1880-08-04 21:00:00 TS 16.1573 -66.2574 main 190 190 P_____________ AL021880 16.1573 -66.2574 TS 45 0 14 274
1880217N16300 1880 10 NA CS NOT_NAMED 1880-08-05 00:00:00 TS 16.2000 -67.0000 50 hurdat_atl main 190 190 O_____________ hurdat_atl AL021880 16.2000 -67.0000 TS 50 0 14 271
1880217N16300 1880 10 NA CS NOT_NAMED 1880-08-05 03:00:00 TS 16.1847 -67.7078 main 197 197 P_____________ AL021880 16.1847 -67.7078 TS 50 0 13 270
1880217N16300 1880 10 NA CS NOT_NAMED 1880-08-05 06:00:00 TS 16.2000 -68.4000 50 hurdat_atl main 224 212 O_____________ hurdat_atl AL021880 16.2000 -68.4000 TS 50 0 14 277
1880217N16300 1880 10 NA CS NOT_NAMED 1880-08-05 09:00:00 TS 16.3423 -69.1072 main 214 194 P_____________ AL021880 16.3423 -69.1072 TS 50 0 14 283
1880217N16300 1880 10 NA CS NOT_NAMED 1880-08-05 12:00:00 TS 16.5000 -69.8000 50 hurdat_atl main 194 154 O_____________ hurdat_atl AL021880 16.5000 -69.8000 TS 50 0 13 280
1880217N16300 1880 10 NA CS NOT_NAMED 1880-08-05 15:00:00 TS 16.5647 -70.4502 main 147 116 P_____________ AL021880 16.5647 -70.4502 TS 50 0 13 275
1880217N16300 1880 10 NA CS NOT_NAMED 1880-08-05 18:00:00 TS 16.6000 -71.1000 50 hurdat_atl main 116 105 O_____________ hurdat_atl AL021880 16.6000 -71.1000 TS 50 0 13 274
1880217N16300 1880 10 NA CS NOT_NAMED 1880-08-05 21:00:00 TS 16.6574 -71.7999 main 109 109 P_____________ AL021880 16.6574 -71.7999 TS 55 0 13 274
1880217N16300 1880 10 NA CS NOT_NAMED 1880-08-06 00:00:00 TS 16.7000 -72.5000 60 hurdat_atl main 154 154 O_____________ hurdat_atl AL021880 16.7000 -72.5000 TS 60 0 13 271
1880217N16300 1880 10 NA CS NOT_NAMED 1880-08-06 03:00:00 TS 16.6847 -73.1578 main 158 145 P_____________ AL021880 16.6847 -73.1578 TS 60 0 12 270
1880217N16300 1880 10 NA CS NOT_NAMED 1880-08-06 06:00:00 TS 16.7000 -73.8000 60 hurdat_atl main 145 135 O_____________ hurdat_atl AL021880 16.7000 -73.8000 TS 60 0 13 277
1880217N16300 1880 10 NA CS NOT_NAMED 1880-08-06 09:00:00 TS 16.8424 -74.4572 main 148 138 P_____________ AL021880 16.8424 -74.4572 TS 65 1 13 284
1880217N16300 1880 10 NA CS NOT_NAMED 1880-08-06 12:00:00 TS 17.0000 -75.1000 70 hurdat_atl main 154 104 O_____________ hurdat_atl AL021880 17.0000 -75.1000 HU 70 1 12 281
1880217N16300 1880 10 NA CS NOT_NAMED 1880-08-06 15:00:00 TS 17.0648 -75.7077 main 104 89 P_____________ AL021880 17.0648 -75.7077 HU 70 1 12 275
1880217N16300 1880 10 NA CS NOT_NAMED 1880-08-06 18:00:00 TS 17.1000 -76.3000 70 hurdat_atl main 89 74 O_____________ hurdat_atl AL021880 17.1000 -76.3000 HU 70 1 12 274
1880217N16300 1880 10 NA CS NOT_NAMED 1880-08-06 21:00:00 TS 17.1349 -76.9077 main 74 55 P_____________ AL021880 17.1349 -76.9077 HU 75 1 12 275
1880217N16300 1880 10 NA CS NOT_NAMED 1880-08-07 00:00:00 TS 17.2000 -77.5000 80 hurdat_atl main 64 64 O_____________ hurdat_atl AL021880 17.2000 -77.5000 HU 80 1 11 281
1880217N16300 1880 10 NA CS NOT_NAMED 1880-08-07 03:00:00 TS 17.3421 -78.0350 main 74 70 P_____________ AL021880 17.3421 -78.0350 HU 80 1 11 286
1880217N16300 1880 10 NA CS NOT_NAMED 1880-08-07 06:00:00 TS 17.5000 -78.6000 80 hurdat_atl main 81 81 O_____________ hurdat_atl AL021880 17.5000 -78.6000 HU 80 1 12 282
1880217N16300 1880 10 NA CS NOT_NAMED 1880-08-07 09:00:00 TS 17.5927 -79.3002 main 116 116 P_____________ AL021880 17.5927 -79.3002 HU 85 2 14 279
1880217N16300 1880 10 NA CS NOT_NAMED 1880-08-07 12:00:00 TS 17.7000 -80.0000 90 hurdat_atl main 178 178 O_____________ hurdat_atl AL021880 17.7000 -80.0000 HU 90 2 13 283
1880217N16300 1880 10 NA CS NOT_NAMED 1880-08-07 15:00:00 TS 17.8847 -80.5800 main 235 235 P_____________ AL021880 17.8847 -80.5800 HU 90 2 11 291
1880217N16300 1880 10 NA CS NOT_NAMED 1880-08-07 18:00:00 TS 18.1000 -81.1000 90 hurdat_atl main 285 285 O_____________ hurdat_atl AL021880 18.1000 -81.1000 HU 90 2 11 293
1880217N16300 1880 10 NA CS NOT_NAMED 1880-08-07 21:00:00 TS 18.2998 -81.6076 main 338 332 P_____________ AL021880 18.2998 -81.6076 HU 90 2 10 293
1880217N16300 1880 10 NA CS NOT_NAMED 1880-08-08 00:00:00 TS 18.5000 -82.1000 90 hurdat_atl main 332 302 O_____________ hurdat_atl AL021880 18.5000 -82.1000 HU 90 2 10 293
1880217N16300 1880 10 NA CS NOT_NAMED 1880-08-08 03:00:00 TS 18.7074 -82.6075 main 302 280 P_____________ AL021880 18.7074 -82.6075 HU 90 2 10 293
1880217N16300 1880 10 NA CS NOT_NAMED 1880-08-08 06:00:00 TS 18.9000 -83.1000 90 hurdat_atl main 281 273 O_____________ hurdat_atl AL021880 18.9000 -83.1000 HU 90 2 10 290
1880217N16300 1880 10 NA CS NOT_NAMED 1880-08-08 09:00:00 TS 19.0500 -83.5801 main 281 270 P_____________ AL021880 19.0500 -83.5801 HU 90 2 9 289
1880217N16300 1880 10 NA CS NOT_NAMED 1880-08-08 12:00:00 TS 19.2000 -84.0000 90 hurdat_atl main 276 269 O_____________ hurdat_atl AL021880 19.2000 -84.0000 HU 90 2 8 296
1880217N16300 1880 10 NA CS NOT_NAMED 1880-08-08 15:00:00 TS 19.3923 -84.3151 main 269 246 P_____________ AL021880 19.3923 -84.3151 HU 90 2 7 305
1880217N16300 1880 10 NA CS NOT_NAMED 1880-08-08 18:00:00 TS 19.6000 -84.6000 90 hurdat_atl main 246 223 O_____________ hurdat_atl AL021880 19.6000 -84.6000 HU 90 2 7 305
1880217N16300 1880 10 NA CS NOT_NAMED 1880-08-08 21:00:00 TS 19.8000 -84.9426 main 223 189 P_____________ AL021880 19.8000 -84.9426 HU 90 2 8 301
1880217N16300 1880 10 NA CS NOT_NAMED 1880-08-09 00:00:00 TS 20.0000 -85.3000 90 hurdat_atl main 189 151 O_____________ hurdat_atl AL021880 20.0000 -85.3000 HU 90 2 8 302
1880217N16300 1880 10 NA CS NOT_NAMED 1880-08-09 03:00:00 TS 20.2074 -85.6500 main 141 103 P_____________ AL021880 20.2074 -85.6500 HU 90 2 8 301
1880217N16300 1880 10 NA CS NOT_NAMED 1880-08-09 06:00:00 TS 20.4000 -86.0000 90 hurdat_atl main 103 70 O_____________ hurdat_atl AL021880 20.4000 -86.0000 HU 90 2 7 298
1880217N16300 1880 10 NA CS NOT_NAMED 1880-08-09 09:00:00 TS 20.5574 -86.3501 main 56 23 P_____________ AL021880 20.5574 -86.3501 HU 90 2 7 295
1880217N16300 1880 10 NA CS NOT_NAMED 1880-08-09 12:00:00 TS 20.7000 -86.7000 90 hurdat_atl main 23 0 O_____________ hurdat_atl AL021880 20.7000 -86.7000 HU 90 2 7 294
1880217N16300 1880 10 NA NA NOT_NAMED 1880-08-09 15:00:00 TS 20.8499 -87.0501 main 0 0 P_____________ AL021880 20.8499 -87.0501 HU 80 1 7 295
1880217N16300 1880 10 NA NA NOT_NAMED 1880-08-09 18:00:00 TS 21.0000 -87.4000 70 hurdat_atl main 0 0 O_____________ hurdat_atl AL021880 21.0000 -87.4000 HU 70 1 7 295
1880217N16300 1880 10 NA NA NOT_NAMED 1880-08-09 21:00:00 TS 21.1499 -87.7426 main 0 0 P_____________ AL021880 21.1499 -87.7426 HU 65 1 7 295
1880217N16300 1880 10 NA NA NOT_NAMED 1880-08-10 00:00:00 TS 21.3000 -88.1000 60 hurdat_atl main 0 0 O_____________ hurdat_atl AL021880 21.3000 -88.1000 TS 60 0 8 293
1880217N16300 1880 10 NA NA NOT_NAMED 1880-08-10 03:00:00 TS 21.4425 -88.5001 main 0 0 P_____________ AL021880 21.4425 -88.5001 TS 55 0 8 292
1880217N16300 1880 10 NA GM NOT_NAMED 1880-08-10 06:00:00 TS 21.6000 -88.9000 50 hurdat_atl main 24 24 O_____________ hurdat_atl AL021880 21.6000 -88.9000 TS 50 0 8 297
1880217N16300 1880 10 NA GM NOT_NAMED 1880-08-10 09:00:00 TS 21.7998 -89.2500 main 55 55 P_____________ AL021880 21.7998 -89.2500 TS 55 0 8 302
1880217N16300 1880 10 NA GM NOT_NAMED 1880-08-10 12:00:00 TS 22.0000 -89.6000 60 hurdat_atl main 84 84 O_____________ hurdat_atl AL021880 22.0000 -89.6000 TS 60 0 8 297
1880217N16300 1880 10 NA GM NOT_NAMED 1880-08-10 15:00:00 TS 22.1575 -90.0001 main 112 112 P_____________ AL021880 22.1575 -90.0001 TS 60 0 8 292
1880217N16300 1880 10 NA GM NOT_NAMED 1880-08-10 18:00:00 TS 22.3000 -90.4000 60 hurdat_atl main 133 133 O_____________ hurdat_atl AL021880 22.3000 -90.4000 TS 60 0 8 292
1880217N16300 1880 10 NA GM NOT_NAMED 1880-08-10 21:00:00 TS 22.4423 -90.7502 main 154 154 P_____________ AL021880 22.4423 -90.7502 TS 65 1 7 295
1880217N16300 1880 10 NA GM NOT_NAMED 1880-08-11 00:00:00 TS 22.6000 -91.1000 70 hurdat_atl main 186 186 O_____________ hurdat_atl AL021880 22.6000 -91.1000 HU 70 1 8 297
1880217N16300 1880 10 NA GM NOT_NAMED 1880-08-11 03:00:00 TS 22.7925 -91.5000 main 226 226 P_____________ AL021880 22.7925 -91.5000 HU 70 1 8 298
1880217N16300 1880 10 NA GM NOT_NAMED 1880-08-11 06:00:00 TS 23.0000 -91.9000 70 hurdat_atl main 268 268 O_____________ hurdat_atl AL021880 23.0000 -91.9000 HU 70 1 8 301
1880217N16300 1880 10 NA GM NOT_NAMED 1880-08-11 09:00:00 TS 23.2074 -92.2576 main 312 312 P_____________ AL021880 23.2074 -92.2576 HU 75 1 8 302
1880217N16300 1880 10 NA GM NOT_NAMED 1880-08-11 12:00:00 TS 23.4000 -92.6000 80 hurdat_atl main 349 349 O_____________ hurdat_atl AL021880 23.4000 -92.6000 HU 80 1 7 298
1880217N16300 1880 10 NA GM NOT_NAMED 1880-08-11 15:00:00 TS 23.5575 -92.9651 main 393 393 P_____________ AL021880 23.5575 -92.9651 HU 80 1 7 295
1880217N16300 1880 10 NA GM NOT_NAMED 1880-08-11 18:00:00 TS 23.7000 -93.3000 80 hurdat_atl main 423 423 O_____________ hurdat_atl AL021880 23.7000 -93.3000 HU 80 1 4 294
1880217N16300 1880 10 NA GM NOT_NAMED 1880-08-11 21:00:00 TS 23.7268 -93.3838 main 431 423 P_____________ AL021880 23.8498 -93.5576 HU 85 2 2 295
1880217N16300 1880 10 NA GM NOT_NAMED 1880-08-12 00:00:00 TS 23.8000 -93.5400 90 hurdat_atl main 423 391 O____________O hurdat_atl AL021880 24.0000 -93.8000 HU 90 2 23.0000 -92.5000 MH 100 4 296
1880217N16300 1880 10 NA GM NOT_NAMED 1880-08-12 03:00:00 TS 23.9127 -93.8083 main 391 354 P____________P AL021880 24.1425 -94.0926 HU 95 2 23.3130 -93.0618 MH 100 6 296
1880217N16300 1880 10 NA GM NOT_NAMED 1880-08-12 06:00:00 TS 24.0667 -94.1333 100 hurdat_atl main 354 307 O____________O hurdat_atl AL021880 24.3000 -94.4000 HU 100 3 23.6000 -93.6000 MH 100 7 300
1880217N16300 1880 10 NA GM NOT_NAMED 1880-08-12 09:00:00 TS 24.2730 -94.4803 main 307 271 P____________P AL021880 24.4847 -94.6703 HU 105 3 23.8497 -94.1005 MH 105 8 303
1880217N16300 1880 10 NA GM NOT_NAMED 1880-08-12 12:00:00 TS 24.5000 -94.8667 110 hurdat_atl main 261 215 O____________O hurdat_atl AL021880 24.7000 -95.0000 HU 110 3 24.1000 -94.6000 MH 110 9 301
1880217N16300 1880 10 NA GM NOT_NAMED 1880-08-12 15:00:00 TS 24.7618 -95.3683 main 201 146 P____________P AL021880 24.9427 -95.4774 HU 115 4 24.4000 -95.1500 MH 115 11 300
1880217N16300 1880 10 NA GM NOT_NAMED 1880-08-12 18:00:00 TS 25.0333 -95.9000 120 hurdat_atl main 146 86 O____________O hurdat_atl AL021880 25.2000 -96.0000 HU 120 4 24.7000 -95.7000 MH 120 11 298
1880217N16300 1880 10 NA GM NOT_NAMED 1880-08-12 21:00:00 TS 25.2718 -96.4054 main 86 41 P____________P AL021880 25.4365 -96.4966 HU 125 4 24.9424 -96.2229 MH 125 10 301
1880217N16300 1880 10 NA GM NOT_NAMED 1880-08-13 00:00:00 TS 25.5333 -96.8333 130 931 hurdat_atl main 41 30 O____________O hurdat_atl AL021880 25.7000 -96.9000 HU 130 931 4 25.2000 -96.7000 MH 130 931 9 307
1880217N16300 1880 10 NA GM NOT_NAMED 1880-08-13 01:00:00 TS 25.6342 -96.9474 130 931 hurdat_atl main 30 0 O____________P hurdat_atl AL021880 25.8000 -97.0000 L HU 130 931 4 25.3025 -96.8423 MH 126 932 8 311
1880217N16300 1880 10 NA GM NOT_NAMED 1880-08-13 03:00:00 TS 25.8069 -97.1822 main 0 0 P____________P AL021880 25.9468 -97.2194 HU 121 935 4 25.5272 -97.1078 MH 120 937 8 306
1880217N16300 1880 10 NA NA NOT_NAMED 1880-08-13 06:00:00 TS 26.0333 -97.5667 110 943 hurdat_atl main 0 0 O____________O hurdat_atl AL021880 26.1000 -97.6000 HU 110 943 3 25.9000 -97.5000 MH 110 943 9 303
1880217N16300 1880 10 NA NA NOT_NAMED 1880-08-13 09:00:00 TS 26.2880 -98.0046 main 0 0 P____________P AL021880 26.2820 -98.0282 HU 90 2 26.3001 -97.9574 MH 95 10 303
1880217N16300 1880 10 NA NA NOT_NAMED 1880-08-13 12:00:00 TS 26.5667 -98.4667 70 hurdat_atl main 0 0 O____________O hurdat_atl AL021880 26.5000 -98.5000 HU 70 1 26.7000 -98.4000 HU 80 10 305
1880217N16300 1880 10 NA NA NOT_NAMED 1880-08-13 15:00:00 TS 26.8683 -98.9268 main 0 0 P____________P AL021880 26.7776 -99.0149 HU 65 1 27.0497 -98.7507 HU 67 10 308
1880217N16300 1880 10 NA NA NOT_NAMED 1880-08-13 18:00:00 TS 27.2000 -99.3667 60 hurdat_atl main 0 0 O____________O hurdat_atl AL021880 27.1000 -99.5000 TS 60 0 27.4000 -99.1000 TS 55 10 313
1880217N16300 1880 10 NA NA NOT_NAMED 1880-08-13 21:00:00 TS 27.5488 -99.7456 main 0 0 P____________P AL021880 27.4347 -99.8655 TS 55 0 27.7772 -99.5057 TS 50 10 317
1880217N16300 1880 10 NA NA NOT_NAMED 1880-08-14 00:00:00 TS 27.9333 -100.133 50 hurdat_atl main 0 0 O____________O hurdat_atl AL021880 27.8000 -100.200 TS 50 0 28.2000 -100.000 TS 45 11 316
1880217N16300 1880 10 NA NA NOT_NAMED 1880-08-14 03:00:00 TS 28.3418 -100.619 main 0 0 P____________P AL021880 28.1701 -100.615 TS 45 0 28.6852 -100.627 TS 40 12 316
1880217N16300 1880 10 NA NA NOT_NAMED 1880-08-14 06:00:00 TS 28.8000 -101.100 40 hurdat_atl main 0 0 O____________O hurdat_atl AL021880 28.6000 -101.000 TS 40 0 29.2000 -101.300 TS 35 13 320
1880217N16300 1880 10 NA NA NOT_NAMED 1880-08-14 09:00:00 TS 29.3082 -101.536 main 0 0 P____________P AL021880 29.1124 -101.347 TS 35 0 29.6997 -101.916 TS 32 12 329
1880217N16300 1880 10 NA NA NOT_NAMED 1880-08-14 12:00:00 TS 29.8667 -101.833 30 hurdat_atl main 0 0 O____________O hurdat_atl AL021880 29.7000 -101.500 TD 30 -1 30.2000 -102.500 TD 30 12 344
1880217N16300 1880 10 NA NA NOT_NAMED 1880-08-14 15:00:00 TS 30.4587 -101.915 main 0 0 P____________P AL021880 30.3378 -101.344 TD 30 -1 30.7004 -103.056 TD 27 12 358
1880217N16300 1880 10 NA NA NOT_NAMED 1880-08-14 18:00:00 TS 31.0667 -101.867 30 hurdat_atl main 0 O____________O hurdat_atl AL021880 31.0000 -101.000 TD 30 -1 31.2000 -103.600 TD 25 12 3

About IBTrACS Database

This database is a web-friendly format of International Best Track Archive for Climate Stewardship (IBTrACS), a global best track data archive curated by NOAA dating back to 1842.

Updated: 2021-10-08